Time;durP1;ratioP1;P1;durP2;ratioP2;P2;SDS_P1;SDS_P2;PMS_P1;PMS_P2;Temp;Humidity;BMP_temperature;BMP_pressure;BME280_temperature;BME280_humidity;BME280_pressure;Samples;Min_cycle;Max_cycle;Signal;HPM_P1;HPM_P2
2023/05/25 00:00:48;;;;;;;10.18;3.22;;;;;;;17.95;65.22;99599.06;3140653;28;20640;-65
2023/05/25 00:02:23;;;;;;;6.85;3.33;;;;;;;17.94;65.24;99596.53;3146483;28;20125;-65
2023/05/25 00:03:59;;;;;;;8.13;3.65;;;;;;;17.93;65.21;99593.06;3150695;28;20578;-65
2023/05/25 00:05:30;;;;;;;6.60;3.42;;;;;;;17.89;65.26;99599.53;3143000;28;20052;-64
2023/05/25 00:07:02;;;;;;;5.72;3.53;;;;;;;17.87;65.43;99590.94;3140189;28;20102;-64
2023/05/25 00:08:34;;;;;;;7.80;3.75;;;;;;;17.89;65.36;99593.41;3144547;28;20051;-64
2023/05/25 00:10:07;;;;;;;8.13;4.22;;;;;;;17.90;65.35;99595.13;3149253;28;20833;-66
2023/05/25 00:11:38;;;;;;;6.15;3.80;;;;;;;17.81;65.14;99594.03;3143847;28;20060;-64
2023/05/25 00:13:10;;;;;;;10.95;4.43;;;;;;;17.78;65.19;99599.56;3150692;28;20090;-64
2023/05/25 00:14:42;;;;;;;19.70;4.47;;;;;;;17.76;65.25;99593.53;3134498;28;20503;-64
2023/05/25 00:16:15;;;;;;;11.00;3.80;;;;;;;17.75;65.30;99594.50;3152942;28;20048;-64
2023/05/25 00:17:47;;;;;;;7.10;4.18;;;;;;;17.72;65.33;99592.09;3152930;28;20167;-64
2023/05/25 00:19:21;;;;;;;8.48;4.55;;;;;;;17.71;65.21;99606.19;3149627;28;20076;-64
2023/05/25 00:20:54;;;;;;;8.20;3.88;;;;;;;17.70;65.26;99596.63;3136875;28;20080;-65
2023/05/25 00:22:27;;;;;;;10.48;3.95;;;;;;;17.69;65.31;99601.06;3140442;28;20060;-65
2023/05/25 00:23:59;;;;;;;6.10;3.88;;;;;;;17.70;65.14;99596.63;3152042;28;20056;-64
2023/05/25 00:25:31;;;;;;;5.43;3.90;;;;;;;17.72;65.37;99598.19;3152711;28;20533;-64
2023/05/25 00:27:04;;;;;;;6.25;3.60;;;;;;;17.72;65.35;99594.72;3142475;28;20052;-65
2023/05/25 00:28:36;;;;;;;7.30;4.53;;;;;;;17.69;65.39;99600.25;3135904;28;20076;-64
2023/05/25 00:30:09;;;;;;;6.57;3.83;;;;;;;17.66;65.42;99588.16;3136521;28;20548;-63
2023/05/25 00:31:41;;;;;;;7.47;3.78;;;;;;;17.65;65.45;99593.50;3148181;28;20070;-64
2023/05/25 00:33:12;;;;;;;5.82;3.97;;;;;;;17.62;65.48;99591.97;3152652;28;20341;-64
2023/05/25 00:34:46;;;;;;;5.65;4.10;;;;;;;17.61;65.55;99592.09;3141946;28;20092;-64
2023/05/25 00:36:18;;;;;;;7.35;5.03;;;;;;;17.51;65.83;99597.25;3139799;28;20477;-65
2023/05/25 00:37:50;;;;;;;5.88;4.10;;;;;;;17.45;65.98;99590.66;3140140;28;20048;-65
2023/05/25 00:39:22;;;;;;;5.10;3.80;;;;;;;17.40;66.23;99594.59;3139960;28;20048;-65
2023/05/25 00:40:55;;;;;;;7.30;4.15;;;;;;;17.40;66.13;99592.78;3144362;28;20059;-64
2023/05/25 00:42:27;;;;;;;10.27;4.18;;;;;;;17.38;66.22;99594.69;3148976;28;20063;-64
2023/05/25 00:43:58;;;;;;;9.90;4.13;;;;;;;17.38;66.33;99594.69;3136020;28;20052;-64
2023/05/25 00:45:30;;;;;;;7.78;4.82;;;;;;;17.40;66.31;99587.53;3140098;28;20063;-64
2023/05/25 00:47:03;;;;;;;6.40;4.13;;;;;;;17.43;66.40;99591.72;3140012;28;20052;-64
2023/05/25 00:48:35;;;;;;;7.38;4.63;;;;;;;17.46;66.34;99591.47;3139864;28;20139;-64
2023/05/25 00:50:16;;;;;;;6.65;3.78;;;;;;;17.41;66.41;99581.28;3141669;28;20503;-64
2023/05/25 00:51:48;;;;;;;8.88;4.07;;;;;;;17.43;66.53;99594.34;3127704;28;20063;-64
2023/05/25 00:53:21;;;;;;;9.45;4.70;;;;;;;17.43;66.54;99595.19;3127536;28;20080;-65
2023/05/25 00:54:55;;;;;;;9.80;4.68;;;;;;;17.42;66.66;99592.66;3151550;28;20056;-64
2023/05/25 00:56:32;;;;;;;7.45;4.38;;;;;;;17.37;66.53;99581.66;3139848;28;20110;-64
2023/05/25 00:58:04;;;;;;;8.63;4.70;;;;;;;17.40;66.84;99592.78;3138216;28;20052;-64
2023/05/25 00:59:40;;;;;;;8.57;4.35;;;;;;;17.37;66.95;99586.94;3137871;28;20048;-64
2023/05/25 01:01:15;;;;;;;6.63;4.75;;;;;;;17.32;67.10;99591.69;3139376;28;20135;-64
2023/05/25 01:02:51;;;;;;;9.98;5.10;;;;;;;17.27;67.28;99592.91;3138117;28;20056;-64
2023/05/25 01:04:24;;;;;;;8.63;5.20;;;;;;;17.25;67.53;99586.91;3146772;28;20859;-64
2023/05/25 01:05:59;;;;;;;11.82;4.15;;;;;;;17.25;67.57;99592.16;3143547;28;20525;-64
2023/05/25 01:07:32;;;;;;;7.13;4.18;;;;;;;17.26;67.55;99585.09;3139522;28;20753;-64
2023/05/25 01:09:05;;;;;;;10.52;4.68;;;;;;;17.27;67.86;99589.41;3139508;28;20528;-64
2023/05/25 01:10:39;;;;;;;;;;;;;;;17.08;67.66;99586.50;3139870;28;20060;-64
2023/05/25 01:12:11;;;;;;;9.30;4.80;;;;;;;17.16;68.07;99589.41;3146353;28;20079;-64
2023/05/25 01:13:44;;;;;;;8.60;5.03;;;;;;;17.19;67.95;99589.19;3146453;28;20056;-63
2023/05/25 01:15:16;;;;;;;;;;;;;;;17.00;68.03;99592.34;3145218;28;20379;-63
2023/05/25 01:16:48;;;;;;;8.15;4.45;;;;;;;17.04;68.56;99581.47;3145575;28;19924;-63
2023/05/25 01:18:20;;;;;;;10.38;5.13;;;;;;;17.06;68.50;99589.25;3143699;28;20749;-64
2023/05/25 01:19:51;;;;;;;7.60;5.05;;;;;;;17.04;68.74;99581.47;3152126;28;20080;-64
2023/05/25 01:21:29;;;;;;;7.25;5.03;;;;;;;17.05;68.66;99587.56;3152243;28;20063;-64
2023/05/25 01:23:11;;;;;;;8.68;5.35;;;;;;;17.00;68.85;99580.00;3152285;28;20191;-64
2023/05/25 01:24:47;;;;;;;9.40;5.35;;;;;;;16.97;69.20;99579.41;3148819;28;20052;-64
2023/05/25 01:26:21;;;;;;;8.50;5.35;;;;;;;16.88;69.00;99564.31;3139647;28;20049;-64
2023/05/25 01:28:00;;;;;;;12.90;5.13;;;;;;;17.01;69.05;99575.63;3138186;28;20080;-64
2023/05/25 01:29:34;;;;;;;8.88;5.30;;;;;;;17.00;69.23;99574.75;3130075;28;20052;-63
2023/05/25 01:31:06;;;;;;;8.55;4.78;;;;;;;17.01;69.04;99579.09;3139770;28;20139;-64
2023/05/25 01:32:39;;;;;;;8.43;5.20;;;;;;;16.98;69.12;99576.69;3141650;28;20052;-64
2023/05/25 01:34:11;;;;;;;14.23;5.20;;;;;;;16.99;69.17;99580.97;3133593;28;20597;-64
2023/05/25 01:35:44;;;;;;;8.45;4.93;;;;;;;16.98;69.16;99581.94;3139002;28;20051;-63
2023/05/25 01:37:22;;;;;;;8.35;5.88;;;;;;;16.97;69.17;99579.41;3140126;28;20064;-63
2023/05/25 01:38:54;;;;;;;12.48;5.10;;;;;;;16.94;69.41;99585.75;3152339;28;20862;-64
2023/05/25 01:40:27;;;;;;;10.43;5.70;;;;;;;16.93;69.51;99577.97;3143911;28;20585;-64
2023/05/25 01:42:00;;;;;;;10.55;5.82;;;;;;;16.89;69.59;99576.50;3139703;28;20359;-64
2023/05/25 01:43:32;;;;;;;;;;;;;;;16.67;69.66;99577.25;3146408;28;20660;-64
2023/05/25 01:45:05;;;;;;;10.15;5.55;;;;;;;16.74;70.04;99578.47;3138694;28;19931;-63
2023/05/25 01:46:39;;;;;;;20.38;5.63;;;;;;;16.76;69.84;99574.81;3139191;28;20057;-64
2023/05/25 01:48:18;;;;;;;9.15;5.13;;;;;;;16.80;69.66;99576.28;3139359;28;20545;-63
2023/05/25 01:50:00;;;;;;;10.10;5.57;;;;;;;16.82;69.62;99582.25;3139581;28;20521;-64
2023/05/25 01:51:37;;;;;;;7.80;5.13;;;;;;;16.83;69.66;99576.03;3142525;28;20098;-64
2023/05/25 01:53:15;;;;;;;8.45;5.50;;;;;;;16.86;69.52;99574.97;3150643;28;20051;-64
2023/05/25 01:54:51;;;;;;;9.80;5.07;;;;;;;16.77;69.63;99568.63;3151759;28;20051;-63
2023/05/25 01:56:26;;;;;;;9.18;5.18;;;;;;;16.85;69.91;99585.59;3142326;28;20048;-65
2023/05/25 01:57:59;;;;;;;11.48;5.88;;;;;;;16.80;69.98;99575.41;3139537;28;20094;-63
2023/05/25 01:59:31;;;;;;;12.55;5.18;;;;;;;16.87;69.89;99587.16;3137771;28;20048;-64
2023/05/25 02:01:03;;;;;;;10.80;5.35;;;;;;;16.87;69.98;99589.78;3138831;28;20080;-64
2023/05/25 02:03:01;;;;;;;11.35;5.15;;;;;;;16.91;69.86;99595.66;3148021;28;20116;-64
2023/05/25 02:04:33;;;;;;;9.07;5.20;;;;;;;16.86;69.99;99596.03;3145913;28;20048;-64
2023/05/25 02:06:05;;;;;;;10.20;5.53;;;;;;;16.86;69.94;99592.53;3155189;28;20478;-64
2023/05/25 02:07:37;;;;;;;8.32;5.47;;;;;;;16.75;70.15;99575.75;3156801;28;20437;-64
2023/05/25 02:09:10;;;;;;;12.35;4.95;;;;;;;16.87;70.04;99595.06;3147860;28;20153;-64
2023/05/25 02:10:42;;;;;;;12.75;5.25;;;;;;;16.79;70.33;99590.34;3153155;28;20056;-64
2023/05/25 02:12:13;;;;;;;10.90;5.78;;;;;;;16.77;70.59;99594.03;3156940;28;20594;-64
2023/05/25 02:13:45;;;;;;;7.07;4.57;;;;;;;16.76;70.48;99592.38;3140031;28;20049;-65
2023/05/25 02:15:17;;;;;;;7.55;4.75;;;;;;;16.72;70.38;99590.91;3148315;28;20401;-64
2023/05/25 02:16:49;;;;;;;6.88;5.20;;;;;;;16.71;70.56;99594.47;3155110;28;20101;-64
2023/05/25 02:18:21;;;;;;;8.80;4.57;;;;;;;16.72;70.53;99604.06;3159555;28;20811;-64
2023/05/25 02:19:53;;;;;;;7.97;4.93;;;;;;;16.70;70.66;99596.25;3159861;28;20043;-65
2023/05/25 02:21:25;;;;;;;10.98;5.22;;;;;;;16.72;70.64;99596.16;3156155;28;20048;-65
2023/05/25 02:22:56;;;;;;;7.78;4.50;;;;;;;16.70;70.58;99598.91;3149574;28;20143;-64
2023/05/25 02:24:29;;;;;;;8.63;4.55;;;;;;;16.69;70.72;99599.03;3150722;28;20044;-65
2023/05/25 02:26:00;;;;;;;8.30;5.13;;;;;;;16.63;70.92;99589.78;3158131;28;20059;-64
2023/05/25 02:27:32;;;;;;;10.80;5.30;;;;;;;16.64;70.78;99604.59;3147038;28;20442;-64
2023/05/25 02:29:04;;;;;;;6.78;5.00;;;;;;;16.62;70.61;99598.63;3136026;28;20098;-65
2023/05/25 02:30:36;;;;;;;5.85;4.18;;;;;;;16.62;70.92;99609.13;3146665;28;20059;-64
2023/05/25 02:32:07;;;;;;;13.13;5.38;;;;;;;16.62;70.95;99601.25;3158660;28;20051;-64
2023/05/25 02:33:39;;;;;;;7.78;4.75;;;;;;;16.62;70.88;99603.88;3148569;28;20052;-64
2023/05/25 02:35:11;;;;;;;5.97;4.38;;;;;;;16.59;71.06;99602.34;3146641;28;20071;-64
2023/05/25 02:36:44;;;;;;;9.95;4.35;;;;;;;16.60;71.06;99598.75;3146593;28;20114;-65
2023/05/25 02:38:16;;;;;;;6.75;4.78;;;;;;;16.58;70.99;99603.25;3155702;28;20048;-64
2023/05/25 02:39:49;;;;;;;8.13;4.43;;;;;;;16.63;70.81;99604.75;3151741;28;20057;-64
2023/05/25 02:41:20;;;;;;;11.18;4.75;;;;;;;16.55;70.95;99597.41;3146276;28;20103;-64
2023/05/25 02:42:52;;;;;;;8.27;4.50;;;;;;;16.53;71.13;99602.78;3153549;28;20047;-64
2023/05/25 02:44:23;;;;;;;9.52;4.40;;;;;;;16.47;71.32;99595.31;3144902;28;20098;-64
2023/05/25 02:45:55;;;;;;;8.68;4.50;;;;;;;16.47;71.33;99597.94;3151786;28;20524;-64
2023/05/25 02:47:27;;;;;;;7.00;3.90;;;;;;;16.43;71.65;99595.66;3159335;28;20113;-64
2023/05/25 02:48:58;;;;;;;10.23;4.68;;;;;;;16.45;71.67;99610.38;3157878;28;20417;-65
2023/05/25 02:50:30;;;;;;;9.65;4.53;;;;;;;16.45;71.38;99604.28;3149479;28;20471;-64
2023/05/25 02:52:02;;;;;;;7.13;3.80;;;;;;;16.43;71.68;99603.56;3156671;28;20109;-64
2023/05/25 02:53:33;;;;;;;6.85;4.45;;;;;;;16.38;71.72;99596.00;3148187;28;20065;-64
2023/05/25 02:55:08;;;;;;;8.25;4.25;;;;;;;16.40;71.42;99609.88;3154270;28;20138;-64
2023/05/25 02:56:41;;;;;;;5.70;3.92;;;;;;;16.37;71.66;99616.19;3145901;28;20537;-64
2023/05/25 02:58:13;;;;;;;8.85;4.70;;;;;;;16.35;71.78;99612.81;3157906;28;20135;-64
2023/05/25 02:59:45;;;;;;;7.38;4.95;;;;;;;16.35;71.88;99604.09;3145359;28;20529;-64
2023/05/25 03:01:17;;;;;;;9.32;4.38;;;;;;;16.32;71.81;99610.41;3157203;28;20610;-64
2023/05/25 03:02:49;;;;;;;8.13;4.13;;;;;;;16.33;71.97;99606.84;3159484;28;20059;-64
2023/05/25 03:04:20;;;;;;;8.43;4.00;;;;;;;16.33;71.99;99613.91;3149728;28;20120;-64
2023/05/25 03:05:52;;;;;;;6.40;4.65;;;;;;;16.31;71.97;99613.16;3146506;28;20071;-64
2023/05/25 03:07:25;;;;;;;12.07;5.68;;;;;;;16.31;71.89;99618.41;3154172;28;20513;-64
2023/05/25 03:08:57;;;;;;;10.50;4.15;;;;;;;16.21;71.93;99609.50;3155644;28;20418;-65
2023/05/25 03:10:29;;;;;;;10.40;4.72;;;;;;;16.27;72.02;99616.97;3146518;28;20673;-64
2023/05/25 03:12:01;;;;;;;9.55;5.10;;;;;;;16.26;72.18;99625.78;3152046;28;20406;-64
2023/05/25 03:13:33;;;;;;;10.80;4.63;;;;;;;16.23;72.41;99626.00;3150994;28;20045;-64
2023/05/25 03:15:05;;;;;;;8.23;4.80;;;;;;;16.22;72.29;99633.06;3146615;28;20050;-64
2023/05/25 03:16:37;;;;;;;8.65;4.25;;;;;;;16.21;72.33;99628.75;3158996;28;20048;-64
2023/05/25 03:18:09;;;;;;;9.77;4.60;;;;;;;16.24;72.36;99635.56;3158873;28;20043;-64
2023/05/25 03:19:42;;;;;;;11.65;4.95;;;;;;;16.24;72.13;99632.91;3156876;28;20067;-64
2023/05/25 03:21:15;;;;;;;8.85;4.18;;;;;;;16.23;72.25;99636.50;3146601;28;20045;-64
2023/05/25 03:22:47;;;;;;;4.53;3.65;;;;;;;16.22;72.22;99619.91;3146079;28;20118;-64
2023/05/25 03:24:18;;;;;;;7.93;3.92;;;;;;;16.25;72.23;99629.38;3146164;28;20094;-64
2023/05/25 03:25:52;;;;;;;8.25;3.97;;;;;;;16.30;72.05;99635.16;3146655;28;20067;-64
2023/05/25 03:27:23;;;;;;;5.85;4.25;;;;;;;16.21;71.75;99627.88;3158365;28;20044;-64
2023/05/25 03:28:55;;;;;;;6.25;3.65;;;;;;;16.28;71.75;99642.28;3139581;28;20056;-64
2023/05/25 03:30:28;;;;;;;7.60;4.00;;;;;;;16.27;71.71;99641.44;3145631;28;20056;-64
2023/05/25 03:32:00;;;;;;;6.85;4.22;;;;;;;16.26;71.65;99636.28;3143185;28;20544;-64
2023/05/25 03:33:32;;;;;;;6.32;4.00;;;;;;;16.28;71.49;99643.13;3156255;28;20048;-64
2023/05/25 03:35:04;;;;;;;6.75;4.15;;;;;;;16.29;71.51;99638.69;3149330;28;20044;-64
2023/05/25 03:36:36;;;;;;;11.90;4.38;;;;;;;16.30;71.23;99643.03;3154003;28;20051;-64
2023/05/25 03:38:08;;;;;;;8.65;4.00;;;;;;;16.29;71.13;99636.06;3146343;28;20044;-65
2023/05/25 03:39:39;;;;;;;6.15;3.95;;;;;;;16.33;71.16;99632.28;3150738;28;20043;-64
2023/05/25 03:41:13;;;;;;;8.82;4.10;;;;;;;16.35;71.16;99633.00;3146039;28;20547;-64
2023/05/25 03:42:45;;;;;;;9.20;3.42;;;;;;;16.32;71.15;99631.44;3151137;28;20536;-64
2023/05/25 03:44:17;;;;;;;9.35;4.07;;;;;;;16.30;71.19;99622.84;3153894;28;20048;-64
2023/05/25 03:45:49;;;;;;;11.50;4.88;;;;;;;16.33;71.06;99627.03;3154793;28;20044;-65
2023/05/25 03:47:20;;;;;;;6.78;4.43;;;;;;;16.33;71.25;99621.78;3146052;28;20051;-64
2023/05/25 03:48:52;;;;;;;6.82;3.72;;;;;;;16.35;71.01;99625.94;3147260;28;20759;-64
2023/05/25 03:50:23;;;;;;;7.05;4.63;;;;;;;16.36;71.10;99632.06;3147951;28;20055;-64
2023/05/25 03:51:55;;;;;;;6.95;4.30;;;;;;;16.36;71.10;99626.81;3148626;28;20048;-65
2023/05/25 03:53:27;;;;;;;8.57;4.80;;;;;;;16.38;71.07;99625.72;3146180;28;20052;-65
2023/05/25 03:55:00;;;;;;;7.10;3.90;;;;;;;16.41;71.14;99627.31;3153767;28;20075;-64
2023/05/25 03:56:33;;;;;;;7.85;4.05;;;;;;;16.42;71.05;99636.06;3145616;28;20052;-64
2023/05/25 03:58:05;;;;;;;9.75;4.70;;;;;;;16.39;70.78;99634.47;3144329;28;20389;-64
2023/05/25 03:59:36;;;;;;;10.05;4.85;;;;;;;16.44;71.26;99639.38;3146002;28;20106;-64
2023/05/25 04:01:09;;;;;;;9.75;5.10;;;;;;;16.49;71.02;99638.09;3145808;28;20048;-65
2023/05/25 04:02:41;;;;;;;12.27;4.72;;;;;;;16.51;71.07;99638.00;3149939;28;20102;-64
2023/05/25 04:04:13;;;;;;;7.97;3.72;;;;;;;16.51;70.83;99641.47;3144478;28;20049;-64
2023/05/25 04:05:45;;;;;;;9.63;4.15;;;;;;;16.54;70.76;99640.41;3140714;28;20052;-65
2023/05/25 04:07:18;;;;;;;6.95;4.15;;;;;;;16.58;70.56;99641.88;3140921;28;20141;-65
2023/05/25 04:08:50;;;;;;;7.63;4.50;;;;;;;16.55;70.62;99636.81;3140365;28;20052;-65
2023/05/25 04:10:22;;;;;;;9.23;4.28;;;;;;;16.57;70.42;99641.03;3146219;28;20440;-63
2023/05/25 04:11:55;;;;;;;10.43;4.93;;;;;;;16.59;70.40;99641.75;3148312;28;20101;-64
2023/05/25 04:13:27;;;;;;;;;;;;;;;16.40;70.67;99640.56;3138814;28;20068;-64
2023/05/25 04:14:59;;;;;;;9.68;4.75;;;;;;;16.45;70.63;99641.91;3135370;28;19925;-64
2023/05/25 04:16:31;;;;;;;7.70;4.63;;;;;;;16.52;70.34;99640.50;3140037;28;20094;-64
2023/05/25 04:18:03;;;;;;;8.55;4.25;;;;;;;16.54;70.16;99643.88;3142402;28;20055;-63
2023/05/25 04:19:34;;;;;;;12.13;4.82;;;;;;;16.63;70.06;99638.91;3148177;28;20079;-63
2023/05/25 04:21:06;;;;;;;6.32;4.38;;;;;;;16.68;69.79;99647.28;3153065;28;20059;-63
2023/05/25 04:22:38;;;;;;;7.63;4.45;;;;;;;16.72;69.53;99648.75;3153056;28;20052;-62
2023/05/25 04:24:10;;;;;;;8.15;4.20;;;;;;;16.75;69.55;99641.47;3144473;28;20052;-62
2023/05/25 04:25:44;;;;;;;16.60;4.25;;;;;;;16.78;69.30;99645.72;3152387;28;20619;-62
2023/05/25 04:27:19;;;;;;;7.43;4.05;;;;;;;16.80;69.28;99646.41;3150498;28;20055;-62
2023/05/25 04:28:50;;;;;;;13.10;4.20;;;;;;;16.79;69.24;99650.84;3133279;28;20053;-66
2023/05/25 04:30:23;;;;;;;8.77;3.97;;;;;;;16.84;69.16;99647.88;3135414;28;20045;-65
2023/05/25 04:31:55;;;;;;;13.88;4.55;;;;;;;16.85;68.86;99646.91;3134968;28;20056;-65
2023/05/25 04:33:28;;;;;;;11.52;4.80;;;;;;;16.89;69.24;99652.78;3136659;28;20056;-64
2023/05/25 04:34:59;;;;;;;;;;;;;;;16.74;69.15;99657.34;3140424;28;20490;-65
2023/05/25 04:36:32;;;;;;;12.82;4.68;;;;;;;16.86;69.28;99656.50;3148098;28;19965;-64
2023/05/25 04:38:04;;;;;;;6.63;3.88;;;;;;;16.92;68.86;99653.44;3144164;28;20557;-63
2023/05/25 04:39:36;;;;;;;38.35;22.40;;;;;;;16.99;68.70;99652.00;3144841;28;20521;-65
2023/05/25 04:41:08;;;;;;;19.50;10.43;;;;;;;17.05;68.38;99651.56;3139808;28;20109;-66
2023/05/25 04:42:41;;;;;;;7.65;4.25;;;;;;;17.12;68.09;99651.09;3140160;28;20052;-66
2023/05/25 04:44:14;;;;;;;12.15;4.95;;;;;;;17.16;67.94;99650.75;3135540;28;20059;-66
2023/05/25 04:45:46;;;;;;;11.77;6.53;;;;;;;17.19;67.78;99652.31;3142999;28;20131;-65
2023/05/25 04:47:18;;;;;;;9.43;5.27;;;;;;;17.20;67.67;99648.72;3149777;28;20052;-69
2023/05/25 04:48:51;;;;;;;14.07;4.70;;;;;;;17.23;67.38;99649.34;3140052;28;20127;-69
2023/05/25 04:50:23;;;;;;;9.85;4.28;;;;;;;17.27;67.25;99650.81;3132999;28;20241;-66
2023/05/25 04:52:01;;;;;;;10.93;6.95;;;;;;;17.33;67.15;99652.09;3140944;28;20646;-67
2023/05/25 04:53:34;;;;;;;12.05;4.82;;;;;;;17.36;67.13;99653.66;3145447;28;20076;-70
2023/05/25 04:55:06;;;;;;;12.10;5.78;;;;;;;17.39;66.96;99651.66;3152930;28;20052;-71
2023/05/25 04:56:38;;;;;;;9.23;4.55;;;;;;;17.44;66.75;99644.25;3139259;28;20138;-71
2023/05/25 04:58:12;;;;;;;12.85;4.55;;;;;;;17.48;66.46;99648.34;3139784;28;20117;-69
2023/05/25 04:59:44;;;;;;;9.13;4.95;;;;;;;17.56;66.42;99646.91;3150552;28;20055;-73
2023/05/25 05:01:16;;;;;;;9.20;4.13;;;;;;;17.57;66.38;99648.56;3150486;28;20531;-68
2023/05/25 05:02:48;;;;;;;8.07;4.25;;;;;;;17.61;66.18;99652.66;3149617;28;20075;-67
2023/05/25 05:04:20;;;;;;;10.27;4.60;;;;;;;17.66;66.04;99651.34;3142573;28;20161;-66
2023/05/25 05:05:52;;;;;;;16.95;4.78;;;;;;;17.68;66.14;99645.94;3144623;28;20054;-66
2023/05/25 05:07:25;;;;;;;10.32;4.47;;;;;;;17.69;65.86;99634.47;3135209;28;20063;-66
2023/05/25 05:08:57;;;;;;;8.85;5.13;;;;;;;17.77;65.78;99647.03;3146931;28;20051;-66
2023/05/25 05:10:29;;;;;;;14.40;4.60;;;;;;;17.85;65.59;99649.94;3152063;28;20060;-64
2023/05/25 05:12:02;;;;;;;12.07;5.05;;;;;;;17.90;65.32;99647.81;3139912;28;20141;-66
2023/05/25 05:13:35;;;;;;;13.57;4.80;;;;;;;17.96;65.31;99644.69;3134714;28;20434;-65
2023/05/25 05:15:08;;;;;;;8.38;4.05;;;;;;;18.02;65.27;99646.00;3135198;28;20806;-66
2023/05/25 05:16:40;;;;;;;7.10;4.40;;;;;;;18.11;64.91;99648.75;3138204;28;20448;-64
2023/05/25 05:18:13;;;;;;;12.43;3.70;;;;;;;18.20;64.78;99652.44;3139518;28;20581;-64
2023/05/25 05:19:45;;;;;;;8.30;4.37;;;;;;;18.26;64.28;99649.34;3142239;28;20093;-66
2023/05/25 05:21:17;;;;;;;6.65;4.32;;;;;;;18.30;63.91;99645.47;3151977;28;20058;-66
2023/05/25 05:22:49;;;;;;;8.07;4.07;;;;;;;18.37;63.74;99651.13;3151622;28;20076;-65
2023/05/25 05:24:21;;;;;;;7.10;4.40;;;;;;;18.39;63.51;99646.53;3140836;28;20044;-65
2023/05/25 05:25:54;;;;;;;10.18;4.13;;;;;;;18.38;63.01;99639.59;3139457;28;20136;-66
2023/05/25 05:27:26;;;;;;;13.10;4.50;;;;;;;18.48;63.31;99650.25;3142162;28;20573;-67
2023/05/25 05:29:00;;;;;;;15.23;4.70;;;;;;;18.58;63.10;99644.13;3137969;28;20076;-65
2023/05/25 05:30:32;;;;;;;6.38;4.00;;;;;;;18.64;62.84;99654.16;3139282;28;20048;-67
2023/05/25 05:32:05;;;;;;;7.82;5.10;;;;;;;18.71;62.98;99645.75;3129872;28;20060;-65
2023/05/25 05:33:38;;;;;;;14.50;4.53;;;;;;;18.82;62.77;99654.50;3136121;28;20083;-62
2023/05/25 05:35:10;;;;;;;7.35;4.57;;;;;;;18.92;62.88;99648.47;3145719;28;21856;-62
2023/05/25 05:36:42;;;;;;;13.45;4.78;;;;;;;19.01;62.83;99645.06;3139392;28;20860;-64
2023/05/25 05:38:14;;;;;;;10.02;4.38;;;;;;;19.12;62.64;99655.56;3139455;28;20083;-62
2023/05/25 05:39:47;;;;;;;8.90;4.68;;;;;;;19.22;62.35;99648.53;3144053;28;20059;-63
2023/05/25 05:41:19;;;;;;;9.48;3.90;;;;;;;19.26;61.97;99643.88;3139227;28;20053;-64
2023/05/25 05:42:50;;;;;;;6.32;4.38;;;;;;;19.40;62.08;99651.44;3144341;28;20058;-65
2023/05/25 05:44:24;;;;;;;8.52;4.72;;;;;;;19.52;61.57;99646.94;3136974;28;20048;-64
2023/05/25 05:45:56;;;;;;;7.95;3.90;;;;;;;19.58;61.43;99654.38;3131576;28;20052;-64
2023/05/25 05:47:28;;;;;;;9.93;4.43;;;;;;;19.66;61.04;99651.09;3143098;28;20052;-64
2023/05/25 05:49:00;;;;;;;10.30;4.32;;;;;;;19.72;60.80;99654.03;3148791;28;20144;-64
2023/05/25 05:50:32;;;;;;;8.18;4.18;;;;;;;19.79;60.40;99654.38;3138944;28;20056;-62
2023/05/25 05:52:05;;;;;;;8.05;4.40;;;;;;;19.85;60.21;99655.66;3137254;28;20063;-63
2023/05/25 05:53:37;;;;;;;9.07;3.90;;;;;;;19.88;59.82;99656.22;3141722;28;20068;-63
2023/05/25 05:55:09;;;;;;;13.27;3.95;;;;;;;19.93;59.48;99653.16;3151906;28;20048;-63
2023/05/25 05:56:41;;;;;;;8.48;4.30;;;;;;;20.00;59.36;99663.06;3142389;28;20139;-63
2023/05/25 05:58:13;;;;;;;7.60;3.85;;;;;;;20.08;59.27;99659.75;3143985;28;20053;-63
2023/05/25 05:59:45;;;;;;;5.03;3.60;;;;;;;20.19;58.66;99656.19;3156129;28;20102;-61
2023/05/25 06:01:20;;;;;;;12.93;3.88;;;;;;;20.31;58.48;99651.63;3156842;28;20059;-61
2023/05/25 06:02:52;;;;;;;8.52;3.72;;;;;;;20.38;58.42;99653.59;3146292;28;20390;-62
2023/05/25 06:04:27;;;;;;;9.68;3.70;;;;;;;20.49;58.12;99657.09;3143998;28;20579;-65
2023/05/25 06:05:59;;;;;;;9.13;4.20;;;;;;;20.58;57.79;99659.78;3136309;28;20049;-62
2023/05/25 06:07:33;;;;;;;8.23;4.00;;;;;;;20.70;57.63;99652.56;3148912;28;20140;-64
2023/05/25 06:09:05;;;;;;;10.75;4.07;;;;;;;20.73;57.38;99657.56;3149699;28;20124;-63
2023/05/25 06:10:38;;;;;;;10.07;5.07;;;;;;;20.79;57.17;99656.19;3151810;28;20434;-64
2023/05/25 06:12:10;;;;;;;9.68;4.13;;;;;;;20.82;57.27;99655.91;3150054;28;20095;-63
2023/05/25 06:13:42;;;;;;;10.23;4.18;;;;;;;20.83;56.91;99642.56;3141728;28;20049;-64
2023/05/25 06:15:16;;;;;;;8.70;4.38;;;;;;;20.98;56.86;99650.09;3140934;28;20048;-63
2023/05/25 06:16:48;;;;;;;6.15;3.50;;;;;;;21.01;56.59;99655.09;3144628;28;20044;-63
2023/05/25 06:18:20;;;;;;;15.07;4.43;;;;;;;21.10;56.96;99654.25;3148540;28;20105;-62
2023/05/25 06:19:52;;;;;;;11.02;4.55;;;;;;;21.17;56.54;99655.34;3153262;28;20049;-62
2023/05/25 06:21:24;;;;;;;8.52;3.50;;;;;;;21.26;56.03;99658.97;3144251;28;20056;-62
2023/05/25 06:22:56;;;;;;;11.13;4.10;;;;;;;21.31;55.74;99659.38;3144842;28;20125;-63
2023/05/25 06:24:28;;;;;;;6.68;3.55;;;;;;;21.37;55.16;99661.50;3144150;28;20055;-63
2023/05/25 06:26:04;;;;;;;11.50;3.87;;;;;;;21.44;54.51;99662.59;3144547;28;20080;-63
2023/05/25 06:27:36;;;;;;;10.93;3.97;;;;;;;21.47;54.20;99667.59;3144142;28;20053;-62
2023/05/25 06:29:08;;;;;;;8.98;3.70;;;;;;;21.50;54.28;99667.34;3133112;28;20454;-63
2023/05/25 06:30:41;;;;;;;15.00;4.05;;;;;;;21.58;54.06;99672.75;3144054;28;20106;-62
2023/05/25 06:32:13;;;;;;;10.82;4.70;;;;;;;21.67;53.95;99667.56;3156396;28;20134;-63
2023/05/25 06:33:45;;;;;;;11.77;4.00;;;;;;;21.75;53.64;99675.66;3145527;28;20059;-64
2023/05/25 06:35:19;;;;;;;12.45;4.20;;;;;;;21.77;53.08;99673.69;3144120;28;20147;-63
2023/05/25 06:36:51;;;;;;;9.35;4.32;;;;;;;21.79;53.21;99671.72;3143624;28;20045;-64
2023/05/25 06:38:23;;;;;;;9.10;4.20;;;;;;;21.83;52.60;99670.47;3152694;28;20074;-64
2023/05/25 06:39:55;;;;;;;10.50;3.83;;;;;;;21.87;52.32;99669.19;3148361;28;20059;-64
2023/05/25 06:41:28;;;;;;;11.35;4.53;;;;;;;21.95;52.35;99674.59;3144249;28;20438;-64
2023/05/25 06:43:01;;;;;;;9.68;4.60;;;;;;;22.00;52.26;99672.34;3144142;28;20044;-64
2023/05/25 06:44:33;;;;;;;10.60;4.17;;;;;;;22.04;52.21;99670.25;3144800;28;20066;-64
2023/05/25 06:46:06;;;;;;;9.05;4.22;;;;;;;22.14;51.40;99670.19;3150785;28;20040;-64
2023/05/25 06:47:38;;;;;;;;;;;;;;;22.01;52.09;99665.25;3145059;28;20422;-65
2023/05/25 06:49:10;;;;;;;8.13;3.88;;;;;;;22.10;51.93;99668.84;3142727;28;19936;-64
2023/05/25 06:50:42;;;;;;;8.63;3.42;;;;;;;22.17;51.56;99654.84;3144230;28;20053;-64
2023/05/25 06:52:15;;;;;;;11.80;3.83;;;;;;;22.26;51.23;99656.63;3147043;28;20105;-65
2023/05/25 06:53:47;;;;;;;9.47;3.60;;;;;;;22.33;51.24;99656.88;3150660;28;20064;-64
2023/05/25 06:55:18;;;;;;;8.88;3.95;;;;;;;22.43;50.99;99660.31;3144214;28;20041;-65
2023/05/25 06:56:51;;;;;;;9.68;3.65;;;;;;;22.47;50.67;99651.03;3144923;28;20122;-65
2023/05/25 06:58:23;;;;;;;7.00;3.90;;;;;;;22.59;50.76;99656.16;3142592;28;20040;-64
2023/05/25 06:59:55;;;;;;;8.70;3.67;;;;;;;22.69;50.55;99648.97;3135835;28;20041;-64
2023/05/25 07:01:29;;;;;;;7.13;3.58;;;;;;;22.83;50.49;99655.56;3148097;28;20060;-64
2023/05/25 07:03:01;;;;;;;5.15;3.38;;;;;;;22.92;50.43;99652.84;3158608;28;20087;-63
2023/05/25 07:04:42;;;;;;;53.22;30.55;;;;;;;23.04;50.22;99656.13;3138767;28;20060;-63
2023/05/25 07:06:15;;;;;;;10.20;5.03;;;;;;;23.17;49.71;99658.38;3137819;28;20533;-63
2023/05/25 07:07:47;;;;;;;8.82;4.03;;;;;;;23.24;49.26;99659.44;3141879;28;20469;-62
2023/05/25 07:09:20;;;;;;;13.07;3.30;;;;;;;23.31;48.91;99655.19;3158985;28;20052;-62
2023/05/25 07:10:52;;;;;;;9.50;3.75;;;;;;;23.37;48.69;99654.56;3159131;28;20059;-63
2023/05/25 07:12:24;;;;;;;6.05;3.40;;;;;;;23.45;48.43;99650.28;3158938;28;20138;-62
2023/05/25 07:13:55;;;;;;;9.25;4.00;;;;;;;23.56;47.91;99658.00;3148455;28;20048;-62
2023/05/25 07:15:27;;;;;;;10.70;3.90;;;;;;;23.62;47.57;99660.88;3141263;28;20052;-62